sensor_id;sensor_type;location;lat;lon;timestamp;P1;durP1;ratioP1;P2;durP2;ratioP2
16304;SDS011;8261;47.678;-122.174;2023-07-20T00:02:11;2.45;;;1.58;;
16304;SDS011;8261;47.678;-122.174;2023-07-20T00:04:42;1.45;;;1.35;;
16304;SDS011;8261;47.678;-122.174;2023-07-20T00:07:13;2.10;;;1.30;;
16304;SDS011;8261;47.678;-122.174;2023-07-20T00:09:44;2.78;;;1.30;;
16304;SDS011;8261;47.678;-122.174;2023-07-20T00:12:17;3.70;;;1.95;;
16304;SDS011;8261;47.678;-122.174;2023-07-20T00:14:48;4.20;;;1.90;;
16304;SDS011;8261;47.678;-122.174;2023-07-20T00:17:22;4.78;;;2.08;;
16304;SDS011;8261;47.678;-122.174;2023-07-20T00:19:52;3.63;;;1.30;;
16304;SDS011;8261;47.678;-122.174;2023-07-20T00:22:24;4.30;;;1.45;;
16304;SDS011;8261;47.678;-122.174;2023-07-20T00:24:55;3.85;;;1.15;;
16304;SDS011;8261;47.678;-122.174;2023-07-20T00:27:28;2.00;;;1.23;;
16304;SDS011;8261;47.678;-122.174;2023-07-20T00:29:58;3.35;;;1.42;;
16304;SDS011;8261;47.678;-122.174;2023-07-20T00:32:30;4.70;;;1.20;;
16304;SDS011;8261;47.678;-122.174;2023-07-20T00:35:01;1.70;;;1.23;;
16304;SDS011;8261;47.678;-122.174;2023-07-20T00:37:31;1.48;;;1.30;;
16304;SDS011;8261;47.678;-122.174;2023-07-20T00:40:02;1.40;;;1.10;;
16304;SDS011;8261;47.678;-122.174;2023-07-20T00:42:36;2.60;;;1.17;;
16304;SDS011;8261;47.678;-122.174;2023-07-20T00:45:08;1.50;;;1.08;;
16304;SDS011;8261;47.678;-122.174;2023-07-20T00:47:39;3.38;;;1.52;;
16304;SDS011;8261;47.678;-122.174;2023-07-20T00:50:11;2.45;;;1.85;;
16304;SDS011;8261;47.678;-122.174;2023-07-20T00:52:42;2.13;;;1.52;;
16304;SDS011;8261;47.678;-122.174;2023-07-20T00:55:13;1.85;;;1.40;;
16304;SDS011;8261;47.678;-122.174;2023-07-20T00:57:46;2.70;;;1.60;;
16304;SDS011;8261;47.678;-122.174;2023-07-20T01:00:17;2.25;;;1.50;;
16304;SDS011;8261;47.678;-122.174;2023-07-20T01:02:48;1.58;;;1.45;;
16304;SDS011;8261;47.678;-122.174;2023-07-20T01:05:19;2.72;;;1.70;;
16304;SDS011;8261;47.678;-122.174;2023-07-20T01:07:52;1.77;;;1.60;;
16304;SDS011;8261;47.678;-122.174;2023-07-20T01:10:29;2.92;;;1.17;;
16304;SDS011;8261;47.678;-122.174;2023-07-20T01:13:08;2.30;;;1.50;;
16304;SDS011;8261;47.678;-122.174;2023-07-20T01:15:41;2.10;;;1.50;;
16304;SDS011;8261;47.678;-122.174;2023-07-20T01:18:18;3.95;;;1.83;;
16304;SDS011;8261;47.678;-122.174;2023-07-20T01:20:49;1.90;;;1.50;;
16304;SDS011;8261;47.678;-122.174;2023-07-20T01:26:48;2.35;;;1.58;;
16304;SDS011;8261;47.678;-122.174;2023-07-20T01:29:50;2.13;;;1.15;;
16304;SDS011;8261;47.678;-122.174;2023-07-20T01:32:35;2.00;;;1.30;;
16304;SDS011;8261;47.678;-122.174;2023-07-20T01:35:11;1.92;;;1.40;;
16304;SDS011;8261;47.678;-122.174;2023-07-20T01:37:44;2.15;;;1.60;;
16304;SDS011;8261;47.678;-122.174;2023-07-20T01:40:17;1.90;;;1.42;;
16304;SDS011;8261;47.678;-122.174;2023-07-20T01:42:51;4.05;;;1.70;;
16304;SDS011;8261;47.678;-122.174;2023-07-20T01:45:22;3.75;;;1.60;;
16304;SDS011;8261;47.678;-122.174;2023-07-20T01:47:55;1.92;;;1.60;;
16304;SDS011;8261;47.678;-122.174;2023-07-20T01:50:26;7.72;;;1.80;;
16304;SDS011;8261;47.678;-122.174;2023-07-20T01:52:57;2.13;;;1.40;;
16304;SDS011;8261;47.678;-122.174;2023-07-20T01:55:28;3.25;;;1.88;;
16304;SDS011;8261;47.678;-122.174;2023-07-20T01:57:58;2.90;;;1.70;;
16304;SDS011;8261;47.678;-122.174;2023-07-20T02:00:29;2.50;;;1.75;;
16304;SDS011;8261;47.678;-122.174;2023-07-20T02:03:02;4.30;;;1.80;;
16304;SDS011;8261;47.678;-122.174;2023-07-20T02:05:33;4.45;;;1.80;;
16304;SDS011;8261;47.678;-122.174;2023-07-20T02:08:04;2.33;;;1.85;;
16304;SDS011;8261;47.678;-122.174;2023-07-20T02:10:35;3.53;;;1.80;;
16304;SDS011;8261;47.678;-122.174;2023-07-20T02:13:06;3.05;;;1.80;;
16304;SDS011;8261;47.678;-122.174;2023-07-20T02:15:37;3.20;;;2.10;;
16304;SDS011;8261;47.678;-122.174;2023-07-20T02:18:09;4.25;;;2.15;;
16304;SDS011;8261;47.678;-122.174;2023-07-20T02:20:41;3.10;;;2.13;;
16304;SDS011;8261;47.678;-122.174;2023-07-20T02:23:12;3.15;;;2.30;;
16304;SDS011;8261;47.678;-122.174;2023-07-20T02:25:43;4.70;;;2.45;;
16304;SDS011;8261;47.678;-122.174;2023-07-20T02:28:15;3.22;;;2.55;;
16304;SDS011;8261;47.678;-122.174;2023-07-20T02:30:46;3.22;;;2.10;;
16304;SDS011;8261;47.678;-122.174;2023-07-20T02:33:18;4.63;;;2.28;;
16304;SDS011;8261;47.678;-122.174;2023-07-20T02:35:49;5.88;;;2.47;;
16304;SDS011;8261;47.678;-122.174;2023-07-20T02:38:20;5.88;;;2.70;;
16304;SDS011;8261;47.678;-122.174;2023-07-20T02:40:51;3.40;;;2.08;;
16304;SDS011;8261;47.678;-122.174;2023-07-20T02:43:22;4.00;;;2.55;;
16304;SDS011;8261;47.678;-122.174;2023-07-20T02:45:53;4.55;;;2.50;;
16304;SDS011;8261;47.678;-122.174;2023-07-20T02:48:26;5.93;;;2.42;;
16304;SDS011;8261;47.678;-122.174;2023-07-20T02:50:56;3.33;;;1.90;;
16304;SDS011;8261;47.678;-122.174;2023-07-20T02:53:27;4.28;;;2.40;;
16304;SDS011;8261;47.678;-122.174;2023-07-20T02:55:58;5.03;;;2.22;;
16304;SDS011;8261;47.678;-122.174;2023-07-20T02:58:29;3.67;;;2.40;;
16304;SDS011;8261;47.678;-122.174;2023-07-20T03:00:59;3.03;;;2.33;;
16304;SDS011;8261;47.678;-122.174;2023-07-20T03:03:32;4.93;;;2.30;;
16304;SDS011;8261;47.678;-122.174;2023-07-20T03:06:06;3.60;;;2.60;;
16304;SDS011;8261;47.678;-122.174;2023-07-20T03:08:38;2.50;;;2.00;;
16304;SDS011;8261;47.678;-122.174;2023-07-20T03:11:09;3.03;;;2.33;;
16304;SDS011;8261;47.678;-122.174;2023-07-20T03:13:39;3.85;;;2.35;;
16304;SDS011;8261;47.678;-122.174;2023-07-20T03:16:11;4.75;;;2.65;;
16304;SDS011;8261;47.678;-122.174;2023-07-20T03:18:45;4.57;;;2.30;;
16304;SDS011;8261;47.678;-122.174;2023-07-20T03:21:16;4.43;;;2.58;;
16304;SDS011;8261;47.678;-122.174;2023-07-20T03:23:47;5.10;;;2.23;;
16304;SDS011;8261;47.678;-122.174;2023-07-20T03:26:18;5.90;;;2.50;;
16304;SDS011;8261;47.678;-122.174;2023-07-20T03:28:50;5.18;;;2.20;;
16304;SDS011;8261;47.678;-122.174;2023-07-20T03:31:21;4.60;;;2.13;;
16304;SDS011;8261;47.678;-122.174;2023-07-20T03:33:53;6.37;;;2.40;;
16304;SDS011;8261;47.678;-122.174;2023-07-20T03:36:24;2.73;;;2.00;;
16304;SDS011;8261;47.678;-122.174;2023-07-20T03:38:55;6.33;;;3.50;;
16304;SDS011;8261;47.678;-122.174;2023-07-20T03:41:26;9.40;;;3.17;;
16304;SDS011;8261;47.678;-122.174;2023-07-20T03:43:57;5.97;;;2.30;;
16304;SDS011;8261;47.678;-122.174;2023-07-20T03:46:28;3.60;;;1.80;;
16304;SDS011;8261;47.678;-122.174;2023-07-20T03:49:00;3.80;;;2.00;;
16304;SDS011;8261;47.678;-122.174;2023-07-20T03:51:31;4.50;;;1.80;;
16304;SDS011;8261;47.678;-122.174;2023-07-20T03:54:02;4.23;;;1.70;;
16304;SDS011;8261;47.678;-122.174;2023-07-20T03:56:33;3.27;;;1.90;;
16304;SDS011;8261;47.678;-122.174;2023-07-20T03:59:04;4.53;;;1.70;;
16304;SDS011;8261;47.678;-122.174;2023-07-20T04:01:35;2.60;;;1.70;;
16304;SDS011;8261;47.678;-122.174;2023-07-20T04:04:09;2.23;;;1.40;;
16304;SDS011;8261;47.678;-122.174;2023-07-20T04:06:40;2.50;;;1.83;;
16304;SDS011;8261;47.678;-122.174;2023-07-20T04:09:12;3.67;;;1.37;;
16304;SDS011;8261;47.678;-122.174;2023-07-20T04:11:42;4.10;;;1.73;;
16304;SDS011;8261;47.678;-122.174;2023-07-20T04:14:13;2.77;;;1.80;;
16304;SDS011;8261;47.678;-122.174;2023-07-20T04:16:46;3.00;;;1.83;;
16304;SDS011;8261;47.678;-122.174;2023-07-20T04:19:18;3.93;;;1.73;;
16304;SDS011;8261;47.678;-122.174;2023-07-20T04:21:49;3.23;;;1.60;;
16304;SDS011;8261;47.678;-122.174;2023-07-20T04:24:20;3.23;;;1.53;;
16304;SDS011;8261;47.678;-122.174;2023-07-20T04:26:51;2.90;;;1.50;;
16304;SDS011;8261;47.678;-122.174;2023-07-20T04:29:21;2.30;;;1.70;;
16304;SDS011;8261;47.678;-122.174;2023-07-20T04:31:52;1.77;;;1.67;;
16304;SDS011;8261;47.678;-122.174;2023-07-20T04:34:25;4.67;;;1.87;;
16304;SDS011;8261;47.678;-122.174;2023-07-20T04:36:58;4.60;;;1.73;;
16304;SDS011;8261;47.678;-122.174;2023-07-20T04:39:30;2.60;;;1.70;;
16304;SDS011;8261;47.678;-122.174;2023-07-20T04:42:00;4.00;;;1.67;;
16304;SDS011;8261;47.678;-122.174;2023-07-20T04:44:32;4.20;;;1.63;;
16304;SDS011;8261;47.678;-122.174;2023-07-20T04:47:05;2.73;;;1.77;;
16304;SDS011;8261;47.678;-122.174;2023-07-20T04:49:37;7.97;;;1.40;;
16304;SDS011;8261;47.678;-122.174;2023-07-20T04:52:09;2.33;;;1.20;;
16304;SDS011;8261;47.678;-122.174;2023-07-20T04:54:40;5.00;;;1.43;;
16304;SDS011;8261;47.678;-122.174;2023-07-20T04:57:11;7.40;;;1.57;;
16304;SDS011;8261;47.678;-122.174;2023-07-20T04:59:42;4.63;;;1.50;;
16304;SDS011;8261;47.678;-122.174;2023-07-20T05:02:13;6.63;;;1.60;;
16304;SDS011;8261;47.678;-122.174;2023-07-20T05:04:46;2.37;;;1.47;;
16304;SDS011;8261;47.678;-122.174;2023-07-20T05:07:16;1.70;;;1.27;;
16304;SDS011;8261;47.678;-122.174;2023-07-20T05:09:47;8.83;;;2.50;;
16304;SDS011;8261;47.678;-122.174;2023-07-20T05:12:21;4.43;;;1.63;;
16304;SDS011;8261;47.678;-122.174;2023-07-20T05:14:55;2.63;;;1.40;;
16304;SDS011;8261;47.678;-122.174;2023-07-20T05:17:26;3.33;;;1.30;;
16304;SDS011;8261;47.678;-122.174;2023-07-20T05:19:58;2.50;;;1.20;;
16304;SDS011;8261;47.678;-122.174;2023-07-20T05:22:32;3.03;;;1.50;;
16304;SDS011;8261;47.678;-122.174;2023-07-20T05:25:03;3.10;;;1.50;;
16304;SDS011;8261;47.678;-122.174;2023-07-20T05:27:35;2.90;;;1.60;;
16304;SDS011;8261;47.678;-122.174;2023-07-20T05:30:07;3.60;;;1.30;;
16304;SDS011;8261;47.678;-122.174;2023-07-20T05:32:38;2.00;;;1.20;;
16304;SDS011;8261;47.678;-122.174;2023-07-20T05:35:11;3.47;;;1.40;;
16304;SDS011;8261;47.678;-122.174;2023-07-20T05:37:42;1.77;;;1.17;;
16304;SDS011;8261;47.678;-122.174;2023-07-20T05:40:14;1.70;;;1.37;;
16304;SDS011;8261;47.678;-122.174;2023-07-20T05:42:46;2.47;;;1.37;;
16304;SDS011;8261;47.678;-122.174;2023-07-20T05:45:19;2.67;;;1.30;;
16304;SDS011;8261;47.678;-122.174;2023-07-20T05:47:50;3.60;;;1.60;;
16304;SDS011;8261;47.678;-122.174;2023-07-20T05:50:22;1.60;;;1.20;;
16304;SDS011;8261;47.678;-122.174;2023-07-20T05:52:53;1.10;;;1.00;;
16304;SDS011;8261;47.678;-122.174;2023-07-20T05:55:24;1.90;;;1.30;;
16304;SDS011;8261;47.678;-122.174;2023-07-20T05:57:55;2.47;;;1.53;;
16304;SDS011;8261;47.678;-122.174;2023-07-20T06:00:26;2.40;;;1.10;;
16304;SDS011;8261;47.678;-122.174;2023-07-20T06:02:57;3.80;;;1.40;;
16304;SDS011;8261;47.678;-122.174;2023-07-20T06:05:29;2.50;;;1.23;;
16304;SDS011;8261;47.678;-122.174;2023-07-20T06:08:00;2.90;;;1.87;;
16304;SDS011;8261;47.678;-122.174;2023-07-20T06:10:31;4.20;;;1.63;;
16304;SDS011;8261;47.678;-122.174;2023-07-20T06:13:02;2.20;;;1.60;;
16304;SDS011;8261;47.678;-122.174;2023-07-20T06:15:33;2.73;;;1.50;;
16304;SDS011;8261;47.678;-122.174;2023-07-20T06:18:04;2.77;;;1.43;;
16304;SDS011;8261;47.678;-122.174;2023-07-20T06:20:36;3.10;;;1.60;;
16304;SDS011;8261;47.678;-122.174;2023-07-20T06:23:07;1.40;;;1.23;;
16304;SDS011;8261;47.678;-122.174;2023-07-20T06:25:38;1.40;;;1.30;;
16304;SDS011;8261;47.678;-122.174;2023-07-20T06:28:09;3.00;;;1.63;;
16304;SDS011;8261;47.678;-122.174;2023-07-20T06:30:40;2.53;;;1.20;;
16304;SDS011;8261;47.678;-122.174;2023-07-20T06:33:10;3.47;;;1.40;;
16304;SDS011;8261;47.678;-122.174;2023-07-20T06:35:43;2.77;;;1.27;;
16304;SDS011;8261;47.678;-122.174;2023-07-20T06:38:14;3.07;;;1.37;;
16304;SDS011;8261;47.678;-122.174;2023-07-20T06:40:48;1.67;;;1.10;;
16304;SDS011;8261;47.678;-122.174;2023-07-20T06:43:18;1.37;;;1.13;;
16304;SDS011;8261;47.678;-122.174;2023-07-20T06:45:52;2.53;;;1.27;;
16304;SDS011;8261;47.678;-122.174;2023-07-20T06:48:23;2.93;;;1.30;;
16304;SDS011;8261;47.678;-122.174;2023-07-20T06:50:56;1.03;;;0.90;;
16304;SDS011;8261;47.678;-122.174;2023-07-20T06:53:27;2.63;;;1.50;;
16304;SDS011;8261;47.678;-122.174;2023-07-20T06:55:57;2.67;;;1.90;;
16304;SDS011;8261;47.678;-122.174;2023-07-20T06:58:28;1.90;;;1.50;;
16304;SDS011;8261;47.678;-122.174;2023-07-20T07:00:59;3.07;;;1.90;;
16304;SDS011;8261;47.678;-122.174;2023-07-20T07:03:33;2.63;;;1.80;;
16304;SDS011;8261;47.678;-122.174;2023-07-20T07:06:06;2.60;;;1.90;;
16304;SDS011;8261;47.678;-122.174;2023-07-20T07:08:37;3.90;;;2.17;;
16304;SDS011;8261;47.678;-122.174;2023-07-20T07:11:08;4.20;;;2.03;;
16304;SDS011;8261;47.678;-122.174;2023-07-20T07:13:39;4.37;;;2.50;;
16304;SDS011;8261;47.678;-122.174;2023-07-20T07:16:09;7.07;;;2.90;;
16304;SDS011;8261;47.678;-122.174;2023-07-20T07:18:46;3.97;;;2.27;;
16304;SDS011;8261;47.678;-122.174;2023-07-20T07:21:19;4.27;;;2.00;;
16304;SDS011;8261;47.678;-122.174;2023-07-20T07:23:49;3.40;;;2.00;;
16304;SDS011;8261;47.678;-122.174;2023-07-20T07:26:21;4.30;;;2.17;;
16304;SDS011;8261;47.678;-122.174;2023-07-20T07:28:51;5.70;;;2.10;;
16304;SDS011;8261;47.678;-122.174;2023-07-20T07:31:22;6.00;;;2.43;;
16304;SDS011;8261;47.678;-122.174;2023-07-20T07:33:54;4.20;;;2.13;;
16304;SDS011;8261;47.678;-122.174;2023-07-20T07:36:26;5.53;;;1.90;;
16304;SDS011;8261;47.678;-122.174;2023-07-20T07:38:57;3.90;;;2.10;;
16304;SDS011;8261;47.678;-122.174;2023-07-20T07:41:48;4.93;;;2.03;;
16304;SDS011;8261;47.678;-122.174;2023-07-20T07:44:19;8.90;;;2.33;;
16304;SDS011;8261;47.678;-122.174;2023-07-20T07:46:50;4.00;;;2.00;;
16304;SDS011;8261;47.678;-122.174;2023-07-20T07:49:21;3.87;;;2.13;;
16304;SDS011;8261;47.678;-122.174;2023-07-20T07:51:53;3.33;;;1.83;;
16304;SDS011;8261;47.678;-122.174;2023-07-20T07:54:24;4.73;;;2.17;;
16304;SDS011;8261;47.678;-122.174;2023-07-20T07:56:55;3.57;;;1.80;;
16304;SDS011;8261;47.678;-122.174;2023-07-20T07:59:26;3.13;;;1.67;;
16304;SDS011;8261;47.678;-122.174;2023-07-20T08:01:58;3.80;;;1.80;;
16304;SDS011;8261;47.678;-122.174;2023-07-20T08:04:29;3.00;;;1.60;;
16304;SDS011;8261;47.678;-122.174;2023-07-20T08:07:03;2.97;;;1.83;;
16304;SDS011;8261;47.678;-122.174;2023-07-20T08:09:34;3.57;;;1.97;;
16304;SDS011;8261;47.678;-122.174;2023-07-20T08:12:06;3.73;;;1.83;;
16304;SDS011;8261;47.678;-122.174;2023-07-20T08:14:37;4.50;;;2.40;;
16304;SDS011;8261;47.678;-122.174;2023-07-20T08:17:09;3.40;;;2.20;;
16304;SDS011;8261;47.678;-122.174;2023-07-20T08:19:40;3.00;;;1.93;;
16304;SDS011;8261;47.678;-122.174;2023-07-20T08:22:12;2.93;;;1.77;;
16304;SDS011;8261;47.678;-122.174;2023-07-20T08:24:43;4.83;;;1.90;;
16304;SDS011;8261;47.678;-122.174;2023-07-20T08:27:14;3.70;;;1.40;;
16304;SDS011;8261;47.678;-122.174;2023-07-20T08:29:45;3.20;;;1.47;;
16304;SDS011;8261;47.678;-122.174;2023-07-20T08:32:15;3.00;;;1.57;;
16304;SDS011;8261;47.678;-122.174;2023-07-20T08:34:47;3.03;;;1.43;;
16304;SDS011;8261;47.678;-122.174;2023-07-20T08:37:19;4.07;;;1.70;;
16304;SDS011;8261;47.678;-122.174;2023-07-20T08:39:50;3.47;;;1.30;;
16304;SDS011;8261;47.678;-122.174;2023-07-20T08:42:21;2.73;;;1.37;;
16304;SDS011;8261;47.678;-122.174;2023-07-20T08:44:53;2.93;;;1.40;;
16304;SDS011;8261;47.678;-122.174;2023-07-20T08:47:25;2.90;;;1.43;;
16304;SDS011;8261;47.678;-122.174;2023-07-20T08:49:56;1.87;;;1.40;;
16304;SDS011;8261;47.678;-122.174;2023-07-20T08:52:30;3.00;;;1.33;;
16304;SDS011;8261;47.678;-122.174;2023-07-20T08:55:04;1.70;;;1.30;;
16304;SDS011;8261;47.678;-122.174;2023-07-20T08:57:35;3.00;;;1.30;;
16304;SDS011;8261;47.678;-122.174;2023-07-20T09:00:09;2.00;;;1.40;;
16304;SDS011;8261;47.678;-122.174;2023-07-20T09:02:43;1.43;;;1.20;;
16304;SDS011;8261;47.678;-122.174;2023-07-20T09:05:17;1.67;;;1.50;;
16304;SDS011;8261;47.678;-122.174;2023-07-20T09:07:50;2.63;;;1.10;;
16304;SDS011;8261;47.678;-122.174;2023-07-20T09:10:22;1.40;;;1.30;;
16304;SDS011;8261;47.678;-122.174;2023-07-20T09:12:53;2.83;;;1.40;;
16304;SDS011;8261;47.678;-122.174;2023-07-20T09:15:24;2.00;;;1.13;;
16304;SDS011;8261;47.678;-122.174;2023-07-20T09:17:55;2.87;;;1.20;;
16304;SDS011;8261;47.678;-122.174;2023-07-20T09:20:31;2.83;;;1.30;;
16304;SDS011;8261;47.678;-122.174;2023-07-20T09:23:05;2.57;;;1.30;;
16304;SDS011;8261;47.678;-122.174;2023-07-20T09:25:36;2.27;;;1.30;;
16304;SDS011;8261;47.678;-122.174;2023-07-20T09:28:07;2.67;;;1.30;;
16304;SDS011;8261;47.678;-122.174;2023-07-20T09:30:38;2.47;;;1.23;;
16304;SDS011;8261;47.678;-122.174;2023-07-20T09:33:11;4.60;;;1.37;;
16304;SDS011;8261;47.678;-122.174;2023-07-20T09:35:51;3.27;;;1.20;;
16304;SDS011;8261;47.678;-122.174;2023-07-20T09:38:29;1.77;;;1.10;;
16304;SDS011;8261;47.678;-122.174;2023-07-20T09:41:20;2.30;;;1.17;;
16304;SDS011;8261;47.678;-122.174;2023-07-20T09:43:54;1.83;;;1.10;;
16304;SDS011;8261;47.678;-122.174;2023-07-20T09:46:25;2.60;;;1.30;;
16304;SDS011;8261;47.678;-122.174;2023-07-20T09:49:14;1.93;;;1.30;;
16304;SDS011;8261;47.678;-122.174;2023-07-20T09:51:49;2.80;;;1.27;;
16304;SDS011;8261;47.678;-122.174;2023-07-20T09:54:23;1.37;;;1.20;;
16304;SDS011;8261;47.678;-122.174;2023-07-20T09:56:56;3.83;;;1.43;;
16304;SDS011;8261;47.678;-122.174;2023-07-20T09:59:27;3.40;;;1.80;;
16304;SDS011;8261;47.678;-122.174;2023-07-20T10:01:58;4.43;;;1.50;;
16304;SDS011;8261;47.678;-122.174;2023-07-20T10:04:34;3.23;;;1.60;;
16304;SDS011;8261;47.678;-122.174;2023-07-20T10:07:08;2.43;;;1.60;;
16304;SDS011;8261;47.678;-122.174;2023-07-20T10:09:43;2.17;;;1.40;;
16304;SDS011;8261;47.678;-122.174;2023-07-20T10:12:14;5.90;;;1.87;;
16304;SDS011;8261;47.678;-122.174;2023-07-20T10:14:48;3.70;;;1.70;;
16304;SDS011;8261;47.678;-122.174;2023-07-20T10:17:28;3.13;;;1.40;;
16304;SDS011;8261;47.678;-122.174;2023-07-20T10:19:59;2.00;;;1.60;;
16304;SDS011;8261;47.678;-122.174;2023-07-20T10:22:35;3.13;;;1.73;;
16304;SDS011;8261;47.678;-122.174;2023-07-20T10:25:10;2.23;;;1.50;;
16304;SDS011;8261;47.678;-122.174;2023-07-20T10:27:41;3.00;;;1.50;;
16304;SDS011;8261;47.678;-122.174;2023-07-20T10:30:12;2.30;;;1.40;;
16304;SDS011;8261;47.678;-122.174;2023-07-20T10:32:44;3.10;;;1.53;;
16304;SDS011;8261;47.678;-122.174;2023-07-20T10:35:15;2.00;;;1.73;;
16304;SDS011;8261;47.678;-122.174;2023-07-20T10:37:51;5.67;;;1.50;;
16304;SDS011;8261;47.678;-122.174;2023-07-20T10:40:28;2.93;;;1.80;;
16304;SDS011;8261;47.678;-122.174;2023-07-20T10:43:01;1.70;;;1.60;;
16304;SDS011;8261;47.678;-122.174;2023-07-20T10:45:39;1.93;;;1.30;;
16304;SDS011;8261;47.678;-122.174;2023-07-20T10:48:14;1.80;;;1.60;;
16304;SDS011;8261;47.678;-122.174;2023-07-20T10:53:39;3.07;;;1.77;;
16304;SDS011;8261;47.678;-122.174;2023-07-20T10:56:13;4.57;;;1.73;;
16304;SDS011;8261;47.678;-122.174;2023-07-20T10:58:44;3.13;;;2.07;;
16304;SDS011;8261;47.678;-122.174;2023-07-20T11:01:16;3.70;;;1.80;;
16304;SDS011;8261;47.678;-122.174;2023-07-20T11:03:49;2.43;;;1.50;;
16304;SDS011;8261;47.678;-122.174;2023-07-20T11:06:30;4.77;;;2.00;;
16304;SDS011;8261;47.678;-122.174;2023-07-20T11:09:05;3.27;;;1.70;;
16304;SDS011;8261;47.678;-122.174;2023-07-20T11:11:44;2.83;;;1.93;;
16304;SDS011;8261;47.678;-122.174;2023-07-20T11:14:23;3.67;;;2.00;;
16304;SDS011;8261;47.678;-122.174;2023-07-20T11:16:54;1.70;;;1.60;;
16304;SDS011;8261;47.678;-122.174;2023-07-20T11:19:25;2.70;;;1.70;;
16304;SDS011;8261;47.678;-122.174;2023-07-20T11:21:59;3.57;;;1.97;;
16304;SDS011;8261;47.678;-122.174;2023-07-20T11:24:38;3.77;;;2.00;;
16304;SDS011;8261;47.678;-122.174;2023-07-20T11:27:11;3.13;;;2.10;;
16304;SDS011;8261;47.678;-122.174;2023-07-20T11:29:42;3.17;;;1.80;;
16304;SDS011;8261;47.678;-122.174;2023-07-20T11:32:20;3.50;;;1.93;;
16304;SDS011;8261;47.678;-122.174;2023-07-20T11:34:51;3.13;;;1.90;;
16304;SDS011;8261;47.678;-122.174;2023-07-20T11:37:22;3.60;;;1.80;;
16304;SDS011;8261;47.678;-122.174;2023-07-20T11:39:55;2.07;;;1.87;;
16304;SDS011;8261;47.678;-122.174;2023-07-20T11:42:28;3.83;;;2.07;;
16304;SDS011;8261;47.678;-122.174;2023-07-20T11:45:02;2.03;;;1.47;;
16304;SDS011;8261;47.678;-122.174;2023-07-20T11:47:34;3.20;;;1.73;;
16304;SDS011;8261;47.678;-122.174;2023-07-20T11:50:10;3.43;;;1.90;;
16304;SDS011;8261;47.678;-122.174;2023-07-20T11:52:42;3.07;;;1.90;;
16304;SDS011;8261;47.678;-122.174;2023-07-20T11:55:12;3.70;;;1.70;;
16304;SDS011;8261;47.678;-122.174;2023-07-20T12:00:41;2.93;;;2.17;;
16304;SDS011;8261;47.678;-122.174;2023-07-20T12:03:14;3.77;;;1.80;;
16304;SDS011;8261;47.678;-122.174;2023-07-20T12:05:45;4.47;;;1.47;;
16304;SDS011;8261;47.678;-122.174;2023-07-20T12:08:27;4.03;;;1.73;;
16304;SDS011;8261;47.678;-122.174;2023-07-20T12:10:59;2.03;;;1.60;;
16304;SDS011;8261;47.678;-122.174;2023-07-20T12:13:36;2.47;;;1.70;;
16304;SDS011;8261;47.678;-122.174;2023-07-20T12:16:12;3.83;;;1.90;;
16304;SDS011;8261;47.678;-122.174;2023-07-20T12:18:45;2.80;;;1.57;;
16304;SDS011;8261;47.678;-122.174;2023-07-20T12:21:15;1.97;;;1.57;;
16304;SDS011;8261;47.678;-122.174;2023-07-20T12:23:48;4.70;;;1.87;;
16304;SDS011;8261;47.678;-122.174;2023-07-20T12:26:19;1.73;;;1.63;;
16304;SDS011;8261;47.678;-122.174;2023-07-20T12:28:52;3.53;;;1.97;;
16304;SDS011;8261;47.678;-122.174;2023-07-20T12:31:25;3.43;;;1.77;;
16304;SDS011;8261;47.678;-122.174;2023-07-20T12:33:59;3.57;;;1.50;;
16304;SDS011;8261;47.678;-122.174;2023-07-20T12:36:30;3.13;;;1.80;;
16304;SDS011;8261;47.678;-122.174;2023-07-20T12:39:01;3.20;;;1.80;;
16304;SDS011;8261;47.678;-122.174;2023-07-20T12:41:32;2.60;;;1.60;;
16304;SDS011;8261;47.678;-122.174;2023-07-20T12:44:03;3.17;;;1.80;;
16304;SDS011;8261;47.678;-122.174;2023-07-20T12:46:35;3.17;;;1.70;;
16304;SDS011;8261;47.678;-122.174;2023-07-20T12:49:07;4.60;;;1.80;;
16304;SDS011;8261;47.678;-122.174;2023-07-20T12:51:37;3.63;;;1.90;;
16304;SDS011;8261;47.678;-122.174;2023-07-20T12:54:09;2.67;;;1.80;;
16304;SDS011;8261;47.678;-122.174;2023-07-20T12:56:39;1.90;;;1.57;;
16304;SDS011;8261;47.678;-122.174;2023-07-20T12:59:13;3.03;;;1.97;;
16304;SDS011;8261;47.678;-122.174;2023-07-20T13:01:46;2.60;;;2.17;;
16304;SDS011;8261;47.678;-122.174;2023-07-20T13:04:17;5.57;;;2.10;;
16304;SDS011;8261;47.678;-122.174;2023-07-20T13:06:48;3.17;;;2.27;;
16304;SDS011;8261;47.678;-122.174;2023-07-20T13:09:18;5.90;;;2.37;;
16304;SDS011;8261;47.678;-122.174;2023-07-20T13:11:50;5.47;;;2.37;;
16304;SDS011;8261;47.678;-122.174;2023-07-20T13:14:20;3.77;;;2.10;;
16304;SDS011;8261;47.678;-122.174;2023-07-20T13:16:53;2.90;;;2.07;;
16304;SDS011;8261;47.678;-122.174;2023-07-20T13:19:24;4.80;;;2.00;;
16304;SDS011;8261;47.678;-122.174;2023-07-20T13:21:56;5.80;;;2.20;;
16304;SDS011;8261;47.678;-122.174;2023-07-20T13:24:27;5.83;;;2.23;;
16304;SDS011;8261;47.678;-122.174;2023-07-20T13:26:58;6.60;;;2.63;;
16304;SDS011;8261;47.678;-122.174;2023-07-20T13:29:29;5.17;;;2.07;;
16304;SDS011;8261;47.678;-122.174;2023-07-20T13:32:02;7.13;;;2.37;;
16304;SDS011;8261;47.678;-122.174;2023-07-20T13:34:34;3.60;;;2.30;;
16304;SDS011;8261;47.678;-122.174;2023-07-20T13:37:06;3.47;;;1.97;;
16304;SDS011;8261;47.678;-122.174;2023-07-20T13:39:39;5.70;;;2.10;;
16304;SDS011;8261;47.678;-122.174;2023-07-20T13:42:11;3.90;;;2.10;;
16304;SDS011;8261;47.678;-122.174;2023-07-20T13:44:44;4.20;;;2.07;;
16304;SDS011;8261;47.678;-122.174;2023-07-20T13:47:17;4.30;;;2.57;;
16304;SDS011;8261;47.678;-122.174;2023-07-20T13:49:48;6.10;;;2.50;;
16304;SDS011;8261;47.678;-122.174;2023-07-20T13:52:30;4.93;;;2.33;;
16304;SDS011;8261;47.678;-122.174;2023-07-20T13:55:04;5.37;;;2.43;;
16304;SDS011;8261;47.678;-122.174;2023-07-20T13:57:36;5.37;;;2.80;;
16304;SDS011;8261;47.678;-122.174;2023-07-20T14:00:10;5.97;;;2.57;;
16304;SDS011;8261;47.678;-122.174;2023-07-20T14:02:48;3.13;;;2.10;;
16304;SDS011;8261;47.678;-122.174;2023-07-20T14:05:22;3.67;;;2.23;;
16304;SDS011;8261;47.678;-122.174;2023-07-20T14:07:56;4.57;;;2.97;;
16304;SDS011;8261;47.678;-122.174;2023-07-20T14:10:27;6.83;;;2.70;;
16304;SDS011;8261;47.678;-122.174;2023-07-20T14:12:57;7.33;;;2.93;;
16304;SDS011;8261;47.678;-122.174;2023-07-20T14:15:28;6.30;;;3.00;;
16304;SDS011;8261;47.678;-122.174;2023-07-20T14:18:01;6.60;;;2.90;;
16304;SDS011;8261;47.678;-122.174;2023-07-20T14:20:32;8.90;;;3.03;;
16304;SDS011;8261;47.678;-122.174;2023-07-20T14:23:05;6.30;;;3.00;;
16304;SDS011;8261;47.678;-122.174;2023-07-20T14:25:36;6.17;;;2.90;;
16304;SDS011;8261;47.678;-122.174;2023-07-20T14:28:07;4.40;;;2.80;;
16304;SDS011;8261;47.678;-122.174;2023-07-20T14:30:38;4.90;;;2.70;;
16304;SDS011;8261;47.678;-122.174;2023-07-20T14:33:11;4.60;;;2.90;;
16304;SDS011;8261;47.678;-122.174;2023-07-20T14:35:42;4.90;;;2.80;;
16304;SDS011;8261;47.678;-122.174;2023-07-20T14:38:12;4.57;;;2.70;;
16304;SDS011;8261;47.678;-122.174;2023-07-20T14:40:43;6.27;;;2.77;;
16304;SDS011;8261;47.678;-122.174;2023-07-20T14:43:18;6.90;;;2.80;;
16304;SDS011;8261;47.678;-122.174;2023-07-20T14:45:49;4.83;;;3.10;;
16304;SDS011;8261;47.678;-122.174;2023-07-20T14:48:23;8.10;;;2.83;;
16304;SDS011;8261;47.678;-122.174;2023-07-20T14:50:54;6.33;;;2.90;;
16304;SDS011;8261;47.678;-122.174;2023-07-20T14:53:28;5.57;;;2.83;;
16304;SDS011;8261;47.678;-122.174;2023-07-20T14:56:03;7.33;;;3.03;;
16304;SDS011;8261;47.678;-122.174;2023-07-20T14:58:36;5.93;;;2.80;;
16304;SDS011;8261;47.678;-122.174;2023-07-20T15:01:07;4.80;;;2.73;;